Wickes, Arkansas
Current Conditions -  °F | °C
As of 2:58 AM on Monday 20 Oct 2014 (Local Time) from KDEQ Reporting Station
Haze Haze  
Wind Chill: 48°   Ceiling: 200
Heat Index: 48°   Visibility: 0.75mi
Dew Point: 48°   Wind: 0mph
Humidity: 100%   Direction: NA
Pressure: 30.06"   Gusts: NA
Location:  34.3°N, 94.34°W
Report Text: KDEQ 200758Z AUTO 00000KT 3/4SM BR VV002 09/09 A3006 RMK AO2 T00890089
Loading
Personal Weather Stations






























Interactive Weather Map
Tropical Storm Tracking
New forecast layout! Learn more

10-Day Weather Forecast

Advertisements
Track Severe Weather on mobile